Weather at Veum Airstrip

Public forecast

Using degrees Celsius for public forecast. Weather courtesy of forecast.io.

Closest aviation weather report (METAR) to Veum Airstrip

Closest report is Moss Airport, Rygge, 8.4 nm (15.6 km) NNW. Retrieved 2021/01/20 16:20 UTC (12 minutes ago):

ENRY 201620Z 07009KT 5000 -RA OVC008 01/M00 Q0987

Closest aviation forecast (TAF) to Veum Airstrip

Closest forecast is Moss Airport, Rygge, 8.4 nm (15.6 km) NNW. Retrieved 2021/01/20 12:00 UTC (5 hours ago):

TAF TAF ENRY 201100Z 2012/2112 07007KT 8000 -SNRA SCT004 OVC010 TEMPO 2012/2023 4000 SNRA BR BKN006 TEMPO 2023/2103 2000 RADZ BR BKN003 BECMG 2100/2103 17010KT